Time;durP1;ratioP1;P1;durP2;ratioP2;P2;SDS_P1;SDS_P2;PMS_P1;PMS_P2;Temp;Humidity;BMP_temperature;BMP_pressure;BME280_temperature;BME280_humidity;BME280_pressure;Samples;Min_cycle;Max_cycle;Signal;HPM_P1;HPM_P2
2022/04/20 00:00:47;;;;;;;;;;;21.20;24.20;;;;;;5167800;27;19923;-50
2022/04/20 00:03:13;;;;;;;;;;;21.20;24.40;;;;;;5159773;27;19927;-57
2022/04/20 00:05:39;;;;;;;;;;;21.10;24.50;;;;;;5162252;27;19962;-52
2022/04/20 00:08:05;;;;;;;;;;;21.30;24.50;;;;;;5144731;27;19935;-58
2022/04/20 00:10:31;;;;;;;;;;;21.10;24.70;;;;;;5162413;27;19929;-52
2022/04/20 00:12:56;;;;;;;;;;;21.20;24.80;;;;;;5167539;27;20141;-59
2022/04/20 00:15:22;;;;;;;;;;;21.20;24.80;;;;;;5162261;27;19927;-59
2022/04/20 00:17:48;;;;;;;;;;;21.20;24.90;;;;;;5162203;27;20010;-59
2022/04/20 00:20:14;;;;;;;;;;;21.30;24.90;;;;;;5167723;27;20374;-59
2022/04/20 00:22:40;;;;;;;;;;;21.10;25.30;;;;;;5158034;27;19931;-59
2022/04/20 00:25:05;;;;;;;;;;;21.20;25.20;;;;;;5161794;27;19923;-58
2022/04/20 00:27:32;;;;;;;;;;;21.10;25.40;;;;;;5167009;27;19978;-62
2022/04/20 00:29:58;;;;;;;;;;;21.20;25.40;;;;;;5161880;27;19929;-60
2022/04/20 00:32:23;;;;;;;;;;;21.00;25.70;;;;;;5167447;27;20455;-61
2022/04/20 00:34:49;;;;;;;;;;;21.30;25.40;;;;;;5143248;27;19923;-60
2022/04/20 00:37:15;;;;;;;;;;;21.00;25.80;;;;;;5161696;27;19937;-60
2022/04/20 00:39:41;;;;;;;;;;;21.30;25.50;;;;;;5165602;27;20366;-58
2022/04/20 00:42:06;;;;;;;;;;;21.10;25.90;;;;;;5158047;27;19923;-60
2022/04/20 00:44:32;;;;;;;;;;;21.20;25.70;;;;;;5161654;27;19970;-60
2022/04/20 00:46:58;;;;;;;;;;;21.10;25.90;;;;;;5167088;27;19975;-60
2022/04/20 00:49:24;;;;;;;;;;;21.20;25.80;;;;;;5143096;27;19929;-60
2022/04/20 00:51:50;;;;;;;;;;;21.00;26.10;;;;;;5167219;27;19922;-61
2022/04/20 00:54:16;;;;;;;;;;;21.30;25.70;;;;;;5163282;27;20463;-57
2022/04/20 00:56:42;;;;;;;;;;;21.00;26.10;;;;;;5165355;27;19927;-58
2022/04/20 00:59:08;;;;;;;;;;;21.20;25.90;;;;;;5166892;27;20433;-57
2022/04/20 01:01:33;;;;;;;;;;;21.00;26.10;;;;;;5163581;27;19939;-61
2022/04/20 01:03:59;;;;;;;;;;;21.20;25.90;;;;;;5145406;27;20325;-60
2022/04/20 01:06:25;;;;;;;;;;;21.00;26.10;;;;;;5170571;27;19926;-56
2022/04/20 01:08:50;;;;;;;;;;;21.20;25.90;;;;;;5165191;27;19967;-58
2022/04/20 01:11:16;;;;;;;;;;;21.10;26.00;;;;;;5170399;27;20013;-60
2022/04/20 01:13:45;;;;;;;;;;;21.30;25.70;;;;;;5164964;27;19985;-59
2022/04/20 01:16:11;;;;;;;;;;;21.00;26.00;;;;;;5164348;27;19929;-54
2022/04/20 01:18:45;;;;;;;;;;;21.20;25.80;;;;;;5165996;27;20235;-59
2022/04/20 01:21:11;;;;;;;;;;;21.10;26.00;;;;;;5164549;27;19970;-57
2022/04/20 01:23:38;;;;;;;;;;;21.20;25.90;;;;;;5164481;27;19923;-51
2022/04/20 01:26:07;;;;;;;;;;;21.30;25.90;;;;;;5170210;27;19931;-54
2022/04/20 01:28:34;;;;;;;;;;;21.10;26.00;;;;;;5164814;27;19922;-51
2022/04/20 01:30:59;;;;;;;;;;;21.30;25.80;;;;;;5164925;27;20013;-60
2022/04/20 01:33:25;;;;;;;;;;;21.00;26.00;;;;;;5170292;27;19930;-59
2022/04/20 01:35:51;;;;;;;;;;;21.30;25.80;;;;;;5142285;27;19923;-59
2022/04/20 01:38:17;;;;;;;;;;;21.10;26.00;;;;;;5168085;27;19926;-49
2022/04/20 01:40:42;;;;;;;;;;;21.30;25.80;;;;;;5164543;27;19927;-55
2022/04/20 01:43:08;;;;;;;;;;;21.00;26.00;;;;;;5164492;27;19923;-52
2022/04/20 01:45:34;;;;;;;;;;;21.20;25.90;;;;;;5169888;27;20331;-56
2022/04/20 01:48:00;;;;;;;;;;;21.10;25.90;;;;;;5164433;27;19929;-49
2022/04/20 01:50:25;;;;;;;;;;;21.30;25.80;;;;;;5164219;27;20129;-57
2022/04/20 01:52:51;;;;;;;;;;;21.10;25.90;;;;;;5169627;27;19926;-59
2022/04/20 01:55:17;;;;;;;;;;;21.30;25.70;;;;;;5159964;27;20264;-57
2022/04/20 01:57:43;;;;;;;;;;;21.00;26.00;;;;;;5169559;27;19923;-53
2022/04/20 02:00:10;;;;;;;;;;;21.30;25.80;;;;;;5164261;27;19989;-55
2022/04/20 02:02:37;;;;;;;;;;;21.10;25.90;;;;;;5164009;27;19923;-56
2022/04/20 02:05:07;;;;;;;;;;;21.10;25.80;;;;;;5168656;27;19923;-57
2022/04/20 02:07:33;;;;;;;;;;;21.20;25.90;;;;;;5164263;27;19933;-54
2022/04/20 02:09:58;;;;;;;;;;;21.10;26.00;;;;;;5141393;27;19927;-58
2022/04/20 02:12:24;;;;;;;;;;;21.20;25.90;;;;;;5165804;27;20084;-57
2022/04/20 02:14:50;;;;;;;;;;;21.10;25.90;;;;;;5161681;27;19956;-60
2022/04/20 02:17:16;;;;;;;;;;;21.10;26.00;;;;;;5166652;27;19929;-59
2022/04/20 02:19:42;;;;;;;;;;;21.30;25.80;;;;;;5166727;27;19970;-60
2022/04/20 02:22:08;;;;;;;;;;;21.10;26.10;;;;;;5163802;27;19963;-56
2022/04/20 02:24:34;;;;;;;;;;;21.20;25.80;;;;;;5169372;27;19923;-59
2022/04/20 02:27:00;;;;;;;;;;;21.10;26.00;;;;;;5163832;27;19930;-61
2022/04/20 02:29:26;;;;;;;;;;;21.30;25.70;;;;;;5163792;27;19931;-56
2022/04/20 02:31:51;;;;;;;;;;;21.00;26.00;;;;;;5164026;27;19934;-62
2022/04/20 02:34:17;;;;;;;;;;;21.20;25.90;;;;;;5163176;27;19923;-58
2022/04/20 02:36:43;;;;;;;;;;;21.10;26.00;;;;;;5163943;27;19922;-59
2022/04/20 02:39:09;;;;;;;;;;;21.10;25.80;;;;;;5150356;27;20377;-58
2022/04/20 02:41:35;;;;;;;;;;;21.10;26.00;;;;;;5164097;27;19932;-56
2022/04/20 02:44:01;;;;;;;;;;;21.10;25.90;;;;;;5169004;27;19929;-59
2022/04/20 02:46:26;;;;;;;;;;;21.10;26.00;;;;;;5163516;27;20385;-55
2022/04/20 02:48:52;;;;;;;;;;;21.10;25.80;;;;;;5160376;27;19922;-53
2022/04/20 02:51:18;;;;;;;;;;;21.20;25.80;;;;;;5166644;27;19975;-58
2022/04/20 02:53:44;;;;;;;;;;;21.10;25.90;;;;;;5163389;27;19922;-57
2022/04/20 02:56:09;;;;;;;;;;;21.30;25.60;;;;;;5163332;27;19927;-58
2022/04/20 02:58:36;;;;;;;;;;;20.90;26.10;;;;;;5168659;27;19930;-58
2022/04/20 03:01:01;;;;;;;;;;;21.30;25.70;;;;;;5163135;27;19923;-57
2022/04/20 03:03:27;;;;;;;;;;;20.90;26.00;;;;;;5168578;27;20116;-56
2022/04/20 03:05:53;;;;;;;;;;;21.20;25.80;;;;;;5163367;27;19922;-58
2022/04/20 03:08:19;;;;;;;;;;;20.90;26.10;;;;;;5158312;27;20511;-57
2022/04/20 03:10:44;;;;;;;;;;;21.20;25.90;;;;;;5167742;27;19973;-58
2022/04/20 03:13:10;;;;;;;;;;;21.00;26.00;;;;;;5163045;27;19940;-57
2022/04/20 03:15:36;;;;;;;;;;;21.20;25.80;;;;;;5163301;27;20115;-53
2022/04/20 03:18:02;;;;;;;;;;;21.10;25.80;;;;;;5149802;27;20401;-55
2022/04/20 03:20:27;;;;;;;;;;;21.20;25.70;;;;;;5163119;27;19934;-55
2022/04/20 03:22:53;;;;;;;;;;;21.00;25.90;;;;;;5149607;27;19965;-58
2022/04/20 03:25:19;;;;;;;;;;;21.20;25.70;;;;;;5160522;27;19931;-57
2022/04/20 03:27:45;;;;;;;;;;;21.00;25.80;;;;;;5159921;27;19929;-59
2022/04/20 03:30:12;;;;;;;;;;;21.10;25.70;;;;;;5148313;27;19953;-59
2022/04/20 03:32:39;;;;;;;;;;;21.00;25.90;;;;;;5162675;27;19922;-51
2022/04/20 03:35:05;;;;;;;;;;;21.20;25.70;;;;;;5162747;27;20223;-52
2022/04/20 03:37:30;;;;;;;;;;;21.10;26.00;;;;;;5168188;27;20354;-57
2022/04/20 03:39:57;;;;;;;;;;;21.20;25.80;;;;;;5162998;27;20434;-54
2022/04/20 03:42:22;;;;;;;;;;;21.00;26.10;;;;;;5166657;27;19929;-55
2022/04/20 03:44:48;;;;;;;;;;;21.30;25.80;;;;;;5140699;27;20298;-60
2022/04/20 03:47:14;;;;;;;;;;;21.00;26.10;;;;;;5161131;27;19927;-55
2022/04/20 03:49:40;;;;;;;;;;;21.30;25.80;;;;;;5149287;27;19926;-59
2022/04/20 03:52:06;;;;;;;;;;;20.90;26.30;;;;;;5162344;27;19922;-57
2022/04/20 03:54:32;;;;;;;;;;;21.20;26.00;;;;;;5162481;27;19990;-59
2022/04/20 03:57:03;;;;;;;;;;;21.00;26.10;;;;;;5167969;27;19923;-50
2022/04/20 03:59:33;;;;;;;;;;;21.30;25.90;;;;;;5162458;27;19922;-58
2022/04/20 04:01:59;;;;;;;;;;;21.00;26.20;;;;;;5160407;27;19923;-55
2022/04/20 04:04:25;;;;;;;;;;;21.20;26.00;;;;;;5144064;27;20445;-58
2022/04/20 04:06:50;;;;;;;;;;;21.10;26.20;;;;;;5162185;27;19923;-57
2022/04/20 04:09:16;;;;;;;;;;;21.20;26.10;;;;;;5148959;27;20037;-59
2022/04/20 04:11:42;;;;;;;;;;;21.10;26.30;;;;;;5161968;27;20385;-57
2022/04/20 04:14:08;;;;;;;;;;;21.10;26.20;;;;;;5162009;27;20446;-58
2022/04/20 04:16:36;;;;;;;;;;;20.90;26.40;;;;;;5167460;27;19926;-56
2022/04/20 04:19:05;;;;;;;;;;;21.30;26.10;;;;;;5162205;27;20488;-59
2022/04/20 04:21:32;;;;;;;;;;;20.90;26.40;;;;;;5157521;27;20013;-55
2022/04/20 04:23:58;;;;;;;;;;;21.30;26.00;;;;;;5166221;27;19929;-57
2022/04/20 04:26:24;;;;;;;;;;;21.00;26.20;;;;;;5162128;27;20377;-57
2022/04/20 04:28:50;;;;;;;;;;;21.30;26.00;;;;;;5167282;27;19966;-59
2022/04/20 04:31:15;;;;;;;;;;;20.90;26.20;;;;;;5167498;27;20335;-57
2022/04/20 04:33:41;;;;;;;;;;;21.20;25.90;;;;;;5165621;27;20408;-56
2022/04/20 04:36:07;;;;;;;;;;;21.10;25.90;;;;;;5171243;27;20471;-59
2022/04/20 04:38:33;;;;;;;;;;;21.20;25.80;;;;;;5164110;27;20509;-59
2022/04/20 04:40:59;;;;;;;;;;;21.20;25.80;;;;;;5162121;27;19973;-60
2022/04/20 04:43:25;;;;;;;;;;;21.10;25.80;;;;;;5170800;27;19923;-61
2022/04/20 04:48:42;;;;;;;;;;;21.00;26.00;;;;;;5165511;27;20762;-56
2022/04/20 04:51:11;;;;;;;;;;;21.10;25.90;;;;;;5170888;27;19923;-58
2022/04/20 04:53:37;;;;;;;;;;;21.00;26.00;;;;;;5165264;27;19965;-56
2022/04/20 04:56:02;;;;;;;;;;;21.20;25.80;;;;;;5166105;27;20381;-57
2022/04/20 04:58:28;;;;;;;;;;;21.00;26.10;;;;;;5165433;27;20572;-56
2022/04/20 05:00:54;;;;;;;;;;;21.20;25.80;;;;;;5164523;27;20408;-60
2022/04/20 05:03:20;;;;;;;;;;;21.10;26.00;;;;;;5170631;27;19922;-59
2022/04/20 05:05:46;;;;;;;;;;;21.30;25.80;;;;;;5165136;27;19927;-58
2022/04/20 05:08:12;;;;;;;;;;;21.00;26.10;;;;;;5164995;27;19929;-57
2022/04/20 05:10:37;;;;;;;;;;;21.30;25.80;;;;;;5170468;27;19923;-58
2022/04/20 05:13:04;;;;;;;;;;;21.10;26.10;;;;;;5165018;27;19971;-60
2022/04/20 05:15:29;;;;;;;;;;;21.30;25.80;;;;;;5162968;27;19927;-59
2022/04/20 05:17:55;;;;;;;;;;;20.90;26.30;;;;;;5167240;27;20312;-56
2022/04/20 05:20:21;;;;;;;;;;;21.30;25.90;;;;;;5164734;27;19931;-58
2022/04/20 05:22:47;;;;;;;;;;;21.00;26.00;;;;;;5170421;27;19923;-56
2022/04/20 05:25:13;;;;;;;;;;;21.20;25.80;;;;;;5164998;27;20481;-50
2022/04/20 05:27:39;;;;;;;;;;;20.90;26.00;;;;;;5164573;27;19970;-59
2022/04/20 05:30:05;;;;;;;;;;;21.20;25.70;;;;;;5151579;27;19930;-60
2022/04/20 05:32:31;;;;;;;;;;;21.10;25.80;;;;;;5164698;27;19993;-59
2022/04/20 05:34:57;;;;;;;;;;;20.90;25.90;;;;;;5160366;27;19930;-51
2022/04/20 05:42:52;;;;;;;;;;;21.10;25.60;;;;;;5164502;27;19982;-59
2022/04/20 05:45:17;;;;;;;;;;;21.20;25.60;;;;;;5169779;27;19970;-50
2022/04/20 05:47:43;;;;;;;;;;;21.20;25.70;;;;;;5164310;27;20958;-55
2022/04/20 05:50:09;;;;;;;;;;;21.30;25.50;;;;;;5167375;27;19923;-58
2022/04/20 05:52:35;;;;;;;;;;;20.90;25.70;;;;;;5164074;27;19929;-58
2022/04/20 05:55:01;;;;;;;;;;;21.20;25.50;;;;;;5142898;27;19929;-49
2022/04/20 05:57:27;;;;;;;;;;;21.10;25.60;;;;;;5169677;27;19923;-57
2022/04/20 05:59:52;;;;;;;;;;;21.20;25.60;;;;;;5164333;27;19944;-50
2022/04/20 06:02:18;;;;;;;;;;;21.20;25.50;;;;;;5164278;27;19979;-56
2022/04/20 06:04:44;;;;;;;;;;;21.10;25.60;;;;;;5169854;27;19926;-56
2022/04/20 06:07:09;;;;;;;;;;;21.10;25.40;;;;;;5163953;27;20373;-54
2022/04/20 06:09:35;;;;;;;;;;;21.20;25.40;;;;;;5146472;27;20301;-58
2022/04/20 06:12:01;;;;;;;;;;;21.20;25.30;;;;;;5164105;27;19930;-59
2022/04/20 06:14:27;;;;;;;;;;;21.10;25.50;;;;;;5163220;27;20386;-60
2022/04/20 06:16:53;;;;;;;;;;;21.30;25.30;;;;;;5169471;27;19923;-60
2022/04/20 06:19:19;;;;;;;;;;;21.10;25.60;;;;;;5163776;27;19934;-60
2022/04/20 06:21:44;;;;;;;;;;;21.30;25.30;;;;;;5163911;27;20281;-59
2022/04/20 06:24:10;;;;;;;;;;;21.00;25.70;;;;;;5169263;27;19978;-55
2022/04/20 06:26:36;;;;;;;;;;;21.10;25.40;;;;;;5164123;27;20043;-60
2022/04/20 06:29:02;;;;;;;;;;;21.10;25.50;;;;;;5161397;27;19976;-56
2022/04/20 06:31:28;;;;;;;;;;;21.20;25.30;;;;;;5165993;27;19922;-58
2022/04/20 06:33:58;;;;;;;;;;;21.30;25.30;;;;;;5163560;27;20378;-55
2022/04/20 06:36:24;;;;;;;;;;;21.10;25.40;;;;;;5169133;27;19922;-57
2022/04/20 06:38:50;;;;;;;;;;;21.10;25.20;;;;;;5163680;27;20005;-59
2022/04/20 06:41:16;;;;;;;;;;;21.00;25.40;;;;;;5163739;27;19927;-58
2022/04/20 06:43:42;;;;;;;;;;;21.30;25.10;;;;;;5168880;27;19935;-54
2022/04/20 06:46:07;;;;;;;;;;;21.10;25.20;;;;;;5163381;27;19926;-60
2022/04/20 06:48:33;;;;;;;;;;;21.10;25.20;;;;;;5158866;27;20442;-60
2022/04/20 06:51:00;;;;;;;;;;;21.20;25.10;;;;;;5147321;27;19934;-58
2022/04/20 06:58:55;;;;;;;;;;;21.20;25.10;;;;;;5168918;27;20352;-57
2022/04/20 07:01:21;;;;;;;;;;;21.20;25.10;;;;;;5163429;27;19964;-58
2022/04/20 07:03:46;;;;;;;;;;;21.00;25.30;;;;;;5164335;27;20413;-56
2022/04/20 07:06:12;;;;;;;;;;;21.30;25.10;;;;;;5164489;27;19922;-59
2022/04/20 07:08:38;;;;;;;;;;;20.90;25.40;;;;;;5160670;27;19926;-50
2022/04/20 07:11:04;;;;;;;;;;;21.30;25.10;;;;;;5168330;27;20018;-58
2022/04/20 07:13:30;;;;;;;;;;;21.10;25.00;;;;;;5162932;27;20424;-61
2022/04/20 07:15:56;;;;;;;;;;;21.20;25.00;;;;;;5163000;27;20316;-58
2022/04/20 07:18:23;;;;;;;;;;;21.00;25.20;;;;;;5168430;27;19923;-60
2022/04/20 07:20:48;;;;;;;;;;;21.20;25.10;;;;;;5142908;27;20028;-58
2022/04/20 07:23:14;;;;;;;;;;;21.20;25.10;;;;;;5162896;27;19926;-53
2022/04/20 07:25:40;;;;;;;;;;;21.00;25.20;;;;;;5163060;27;19935;-50
2022/04/20 07:28:06;;;;;;;;;;;21.20;25.10;;;;;;5162249;27;19923;-54
2022/04/20 07:30:32;;;;;;;;;;;21.00;25.00;;;;;;5168318;27;19923;-54
2022/04/20 07:32:58;;;;;;;;;;;21.30;24.70;;;;;;5162669;27;20278;-58
2022/04/20 07:35:24;;;;;;;;;;;21.00;24.80;;;;;;5162845;27;20035;-58
2022/04/20 07:37:49;;;;;;;;;;;21.30;24.70;;;;;;5148203;27;19927;-56
2022/04/20 07:40:15;;;;;;;;;;;21.10;24.60;;;;;;5162588;27;19969;-57
2022/04/20 07:42:41;;;;;;;;;;;21.20;24.60;;;;;;5160129;27;19923;-53
2022/04/20 07:45:07;;;;;;;;;;;21.00;24.80;;;;;;5164961;27;19923;-57
2022/04/20 07:47:33;;;;;;;;;;;21.30;24.70;;;;;;5162658;27;19927;-50
2022/04/20 07:52:45;;;;;;;;;;;21.30;24.50;;;;;;5167902;27;19927;-59
2022/04/20 07:55:12;;;;;;;;;;;21.00;24.30;;;;;;5162441;27;20437;-57
2022/04/20 07:57:37;;;;;;;;;;;21.30;24.10;;;;;;5167922;27;19929;-59
2022/04/20 08:00:04;;;;;;;;;;;21.10;24.30;;;;;;5162419;27;20352;-56
2022/04/20 08:02:29;;;;;;;;;;;21.30;24.10;;;;;;5138274;27;20014;-57
2022/04/20 08:04:55;;;;;;;;;;;20.90;24.50;;;;;;5166331;27;19923;-50
2022/04/20 08:07:21;;;;;;;;;;;21.20;24.30;;;;;;5162455;27;19926;-56
2022/04/20 08:09:47;;;;;;;;;;;21.10;24.50;;;;;;5162417;27;20129;-58
2022/04/20 08:12:12;;;;;;;;;;;21.20;24.40;;;;;;5167729;27;19940;-59
2022/04/20 08:14:38;;;;;;;;;;;20.90;24.80;;;;;;5162302;27;20274;-60
2022/04/20 08:17:04;;;;;;;;;;;21.20;24.50;;;;;;5167580;27;19951;-58
2022/04/20 08:19:30;;;;;;;;;;;21.10;24.70;;;;;;5159224;27;20485;-60
2022/04/20 08:21:56;;;;;;;;;;;21.20;24.70;;;;;;5140824;27;19934;-56
2022/04/20 08:24:22;;;;;;;;;;;21.10;24.90;;;;;;5167683;27;19978;-57
2022/04/20 08:26:48;;;;;;;;;;;21.20;24.80;;;;;;5162048;27;19922;-58
2022/04/20 08:29:13;;;;;;;;;;;21.20;24.80;;;;;;5146830;27;20680;-61
2022/04/20 08:31:39;;;;;;;;;;;21.20;24.70;;;;;;5146576;27;19970;-60
2022/04/20 08:34:05;;;;;;;;;;;21.00;24.90;;;;;;5141374;27;20138;-61
2022/04/20 08:36:31;;;;;;;;;;;21.30;24.60;;;;;;5146087;27;20034;-56
2022/04/20 08:38:56;;;;;;;;;;;21.10;24.90;;;;;;5136560;27;19962;-60
2022/04/20 08:41:22;;;;;;;;;;;21.30;24.70;;;;;;5140022;27;19944;-59
2022/04/20 08:43:48;;;;;;;;;;;21.10;24.90;;;;;;5146153;27;19970;-62
2022/04/20 08:46:14;;;;;;;;;;;21.30;24.60;;;;;;5140878;27;19958;-59
2022/04/20 08:48:40;;;;;;;;;;;21.10;24.90;;;;;;5140911;27;20591;-58
2022/04/20 08:51:06;;;;;;;;;;;21.20;24.80;;;;;;5146138;27;19972;-51
2022/04/20 08:53:32;;;;;;;;;;;21.10;24.80;;;;;;5140722;27;19931;-60
2022/04/20 08:58:46;;;;;;;;;;;21.10;25.10;;;;;;5143379;27;20400;-60
2022/04/20 09:01:12;;;;;;;;;;;21.20;24.70;;;;;;5140684;27;19927;-58
2022/04/20 09:03:38;;;;;;;;;;;21.20;24.70;;;;;;5126794;27;20375;-57
2022/04/20 09:06:05;;;;;;;;;;;21.10;24.50;;;;;;5141958;27;19927;-57
2022/04/20 09:08:30;;;;;;;;;;;21.20;24.40;;;;;;5140807;27;20010;-58
2022/04/20 09:10:57;;;;;;;;;;;21.20;24.30;;;;;;5146006;27;20423;-59
2022/04/20 09:13:30;;;;;;;;;;;21.20;24.20;;;;;;5140735;27;19949;-59
2022/04/20 09:15:56;;;;;;;;;;;21.30;23.80;;;;;;5138287;27;20382;-59
2022/04/20 09:18:23;;;;;;;;;;;21.20;23.80;;;;;;5130081;27;19930;-60
2022/04/20 09:20:50;;;;;;;;;;;21.20;23.70;;;;;;5125922;27;19923;-56
2022/04/20 09:23:15;;;;;;;;;;;21.20;23.80;;;;;;5143648;27;20381;-60
2022/04/20 09:25:48;;;;;;;;;;;21.20;23.70;;;;;;5149604;27;19923;-59
2022/04/20 09:28:14;;;;;;;;;;;21.20;23.50;;;;;;5143891;27;20017;-58
2022/04/20 09:30:40;;;;;;;;;;;21.20;23.40;;;;;;5149441;27;20049;-55
2022/04/20 09:33:07;;;;;;;;;;;21.20;23.40;;;;;;5140671;27;19939;-56
2022/04/20 09:35:42;;;;;;;;;;;21.20;23.20;;;;;;5141310;27;19946;-48
2022/04/20 09:38:08;;;;;;;;;;;21.30;23.10;;;;;;5148930;27;20010;-61
2022/04/20 09:40:35;;;;;;;;;;;21.20;23.20;;;;;;5144071;27;20011;-56
2022/04/20 09:43:02;;;;;;;;;;;21.20;23.30;;;;;;5143559;27;19972;-52
2022/04/20 09:45:28;;;;;;;;;;;21.00;23.20;;;;;;5149190;27;19923;-59
2022/04/20 09:50:39;;;;;;;;;;;21.10;23.10;;;;;;5127324;27;20308;-57
2022/04/20 09:53:05;;;;;;;;;;;21.30;22.70;;;;;;5144269;27;20013;-51
2022/04/20 09:55:31;;;;;;;;;;;21.00;22.60;;;;;;5143284;27;19923;-58
2022/04/20 09:58:18;;;;;;;;;;;21.30;22.30;;;;;;5144593;27;19927;-54
2022/04/20 10:00:50;;;;;;;;;;;21.20;22.30;;;;;;5144785;27;19923;-61
2022/04/20 10:03:24;;;;;;;;;;;21.20;22.30;;;;;;5143499;27;19947;-56
2022/04/20 10:05:50;;;;;;;;;;;21.20;22.40;;;;;;5125116;27;20014;-60
2022/04/20 10:08:16;;;;;;;;;;;21.20;22.20;;;;;;5148949;27;19927;-59
2022/04/20 10:10:42;;;;;;;;;;;21.10;22.10;;;;;;5138521;27;19923;-59
2022/04/20 10:13:08;;;;;;;;;;;21.30;21.90;;;;;;5129118;27;19923;-51
2022/04/20 10:18:19;;;;;;;;;;;21.20;22.10;;;;;;5143310;27;19929;-51
2022/04/20 10:20:46;;;;;;;;;;;21.20;22.30;;;;;;5148597;27;19927;-60
2022/04/20 10:23:13;;;;;;;;;;;21.30;22.20;;;;;;5142951;27;20277;-47
2022/04/20 10:25:39;;;;;;;;;;;21.10;22.30;;;;;;5142916;27;19974;-61
2022/04/20 10:28:19;;;;;;;;;;;21.30;22.30;;;;;;5126628;27;19923;-54
2022/04/20 10:31:03;;;;;;;;;;;21.10;22.50;;;;;;5140418;27;19923;-61
2022/04/20 10:33:31;;;;;;;;;;;21.30;22.20;;;;;;5142721;27;19923;-56
2022/04/20 10:36:01;;;;;;;;;;;21.10;22.30;;;;;;5148328;27;19931;-58
2022/04/20 10:38:29;;;;;;;;;;;21.30;22.30;;;;;;5143098;27;20409;-57
2022/04/20 10:40:56;;;;;;;;;;;21.10;22.60;;;;;;5124639;27;19986;-60
2022/04/20 10:43:23;;;;;;;;;;;21.30;22.60;;;;;;5148261;27;19967;-60
2022/04/20 10:46:05;;;;;;;;;;;21.10;22.80;;;;;;5141515;27;21289;-54
2022/04/20 10:48:51;;;;;;;;;;;21.20;22.70;;;;;;5138750;27;19923;-59
2022/04/20 10:51:22;;;;;;;;;;;21.20;22.50;;;;;;5147871;27;19927;-60
2022/04/20 10:53:48;;;;;;;;;;;21.30;22.50;;;;;;5142433;27;19927;-60
2022/04/20 10:56:14;;;;;;;;;;;21.30;22.40;;;;;;5142545;27;20238;-53
2022/04/20 10:58:52;;;;;;;;;;;21.10;22.50;;;;;;5147924;27;20313;-61
2022/04/20 11:01:18;;;;;;;;;;;21.30;22.10;;;;;;5142300;27;19930;-61
2022/04/20 11:03:59;;;;;;;;;;;21.20;22.20;;;;;;5126322;27;20787;-55
2022/04/20 11:06:43;;;;;;;;;;;21.20;22.10;;;;;;5142710;27;20010;-55
2022/04/20 11:09:17;;;;;;;;;;;21.10;21.90;;;;;;5142306;27;19923;-52
2022/04/20 11:20:05;;;;;;;;;;;21.20;21.50;;;;;;5142000;27;20029;-59
2022/04/20 11:22:31;;;;;;;;;;;21.20;21.60;;;;;;5146696;27;20291;-58
2022/04/20 11:24:57;;;;;;;;;;;21.20;21.70;;;;;;5137641;27;20014;-61
2022/04/20 11:27:32;;;;;;;;;;;21.30;21.70;;;;;;5141565;27;20018;-58
2022/04/20 11:29:58;;;;;;;;;;;21.20;21.80;;;;;;5147311;27;19933;-58
2022/04/20 11:32:24;;;;;;;;;;;21.20;21.70;;;;;;5142257;27;19923;-57
2022/04/20 11:34:50;;;;;;;;;;;21.30;21.60;;;;;;5123785;27;20406;-58
2022/04/20 11:37:17;;;;;;;;;;;21.20;21.60;;;;;;5128742;27;19923;-60
2022/04/20 11:39:42;;;;;;;;;;;21.10;21.30;;;;;;5140989;27;20018;-50
2022/04/20 11:42:08;;;;;;;;;;;21.20;21.20;;;;;;5143409;27;19962;-59
2022/04/20 11:44:34;;;;;;;;;;;21.30;21.20;;;;;;5139758;27;19949;-61
2022/04/20 11:47:03;;;;;;;;;;;21.30;21.10;;;;;;5141616;27;19927;-59
2022/04/20 11:49:42;;;;;;;;;;;21.20;21.40;;;;;;5147109;27;19937;-56
2022/04/20 11:52:09;;;;;;;;;;;21.10;21.60;;;;;;5142111;27;19927;-59
2022/04/20 11:54:35;;;;;;;;;;;21.30;21.40;;;;;;5141558;27;20370;-59
2022/04/20 11:57:04;;;;;;;;;;;21.30;21.30;;;;;;5147228;27;19923;-59
2022/04/20 11:59:30;;;;;;;;;;;21.10;21.30;;;;;;5140191;27;19934;-54
2022/04/20 12:01:56;;;;;;;;;;;21.20;21.10;;;;;;5137494;27;19924;-60
2022/04/20 12:04:22;;;;;;;;;;;21.30;21.10;;;;;;5146350;27;19927;-61
2022/04/20 12:06:55;;;;;;;;;;;21.30;21.30;;;;;;5122808;27;19956;-59
2022/04/20 12:09:22;;;;;;;;;;;21.30;21.30;;;;;;5146890;27;20048;-56
2022/04/20 12:11:51;;;;;;;;;;;21.10;21.60;;;;;;5141444;27;19929;-60
2022/04/20 12:14:17;;;;;;;;;;;21.30;21.20;;;;;;5141433;27;19963;-55
2022/04/20 12:16:43;;;;;;;;;;;21.20;21.30;;;;;;5147098;27;19970;-60
2022/04/20 12:19:09;;;;;;;;;;;21.20;21.20;;;;;;5137000;27;19935;-59
2022/04/20 12:21:35;;;;;;;;;;;21.30;21.20;;;;;;5140155;27;19923;-56
2022/04/20 12:24:04;;;;;;;;;;;21.10;21.60;;;;;;5146654;27;19929;-61
2022/04/20 12:26:30;;;;;;;;;;;21.30;21.50;;;;;;5141226;27;19929;-60
2022/04/20 12:28:59;;;;;;;;;;;21.30;21.60;;;;;;5123703;27;19924;-59
2022/04/20 12:31:25;;;;;;;;;;;21.20;21.70;;;;;;5146754;27;19943;-61
2022/04/20 12:34:00;;;;;;;;;;;21.30;21.60;;;;;;5141018;27;19927;-60
2022/04/20 12:36:26;;;;;;;;;;;21.20;21.60;;;;;;5144103;27;19927;-59
2022/04/20 12:38:52;;;;;;;;;;;21.30;21.50;;;;;;5137680;27;19923;-59
2022/04/20 12:41:47;;;;;;;;;;;21.20;21.30;;;;;;5140745;27;20018;-59
2022/04/20 12:44:31;;;;;;;;;;;21.30;21.30;;;;;;5124072;27;20022;-60
2022/04/20 12:46:57;;;;;;;;;;;21.30;21.40;;;;;;5146333;27;19927;-60
2022/04/20 12:49:26;;;;;;;;;;;21.30;21.20;;;;;;5141473;27;19989;-60
2022/04/20 12:51:52;;;;;;;;;;;21.30;21.00;;;;;;5150115;27;19935;-59
2022/04/20 12:54:24;;;;;;;;;;;21.30;20.90;;;;;;5143889;27;20323;-60
2022/04/20 13:02:19;;;;;;;;;;;21.20;20.90;;;;;;5149045;27;20013;-60
2022/04/20 13:04:46;;;;;;;;;;;21.30;20.70;;;;;;5144280;27;20013;-61
2022/04/20 13:07:12;;;;;;;;;;;21.30;21.00;;;;;;5149704;27;19923;-60
2022/04/20 13:09:38;;;;;;;;;;;21.20;21.10;;;;;;5144395;27;20026;-56
2022/04/20 13:12:04;;;;;;;;;;;21.20;21.00;;;;;;5144325;27;20391;-59
2022/04/20 13:14:31;;;;;;;;;;;21.30;21.10;;;;;;5144464;27;19934;-59
2022/04/20 13:16:57;;;;;;;;;;;21.30;21.30;;;;;;5124695;27;19931;-60
2022/04/20 13:19:23;;;;;;;;;;;21.30;21.10;;;;;;5143759;27;19923;-60
2022/04/20 13:21:48;;;;;;;;;;;21.30;21.10;;;;;;5149398;27;19923;-60
2022/04/20 13:27:54;;;;;;;;;;;21.30;21.20;;;;;;5143816;27;19972;-58
2022/04/20 13:29:46;;;;;;;;;;;21.20;20.80;;;;;;5149317;27;19971;-59
2022/04/20 13:32:13;;;;;;;;;;;21.30;20.80;;;;;;5140478;27;19975;-59
2022/04/20 13:34:38;;;;;;;;;;;21.30;20.70;;;;;;5144660;27;19940;-56
2022/04/20 13:37:04;;;;;;;;;;;21.30;20.70;;;;;;5125583;27;19927;-60
2022/04/20 13:39:30;;;;;;;;;;;21.30;20.70;;;;;;5143545;27;19923;-60
2022/04/20 13:41:57;;;;;;;;;;;21.30;20.60;;;;;;5149307;27;20374;-60
2022/04/20 13:44:23;;;;;;;;;;;21.40;20.70;;;;;;5143666;27;20004;-60
2022/04/20 13:46:49;;;;;;;;;;;21.30;20.60;;;;;;5143490;27;19923;-61
2022/04/20 13:49:15;;;;;;;;;;;21.30;20.60;;;;;;5149029;27;19931;-59
2022/04/20 13:51:41;;;;;;;;;;;21.30;20.70;;;;;;5138371;27;19929;-61
2022/04/20 13:54:07;;;;;;;;;;;21.30;20.80;;;;;;5143191;27;20017;-60
2022/04/20 13:56:32;;;;;;;;;;;21.30;20.80;;;;;;5148794;27;19931;-60
2022/04/20 13:58:58;;;;;;;;;;;21.30;20.80;;;;;;5143797;27;19923;-59
2022/04/20 14:01:24;;;;;;;;;;;21.30;20.50;;;;;;5148078;27;19973;-59
2022/04/20 14:03:50;;;;;;;;;;;21.30;20.50;;;;;;5143400;27;20013;-60
2022/04/20 14:06:16;;;;;;;;;;;21.30;20.60;;;;;;5143383;27;19931;-59
2022/04/20 14:08:42;;;;;;;;;;;21.30;20.70;;;;;;5145634;27;20001;-60
2022/04/20 14:11:08;;;;;;;;;;;21.30;20.70;;;;;;5140640;27;19976;-60
2022/04/20 14:13:34;;;;;;;;;;;21.30;20.70;;;;;;5143078;27;19931;-59
2022/04/20 14:16:00;;;;;;;;;;;21.30;20.40;;;;;;5148573;27;19933;-59
2022/04/20 14:18:25;;;;;;;;;;;21.30;20.40;;;;;;5124549;27;19931;-61
2022/04/20 14:20:51;;;;;;;;;;;21.30;20.50;;;;;;5148454;27;20348;-60
2022/04/20 14:23:17;;;;;;;;;;;21.30;20.70;;;;;;5142592;27;19923;-59
2022/04/20 14:33:59;;;;;;;;;;;21.50;21.10;;;;;;5142792;27;19994;-60
2022/04/20 14:36:25;;;;;;;;;;;21.50;21.10;;;;;;5148317;27;19933;-61
2022/04/20 14:38:52;;;;;;;;;;;21.50;21.00;;;;;;5142853;27;19927;-61
2022/04/20 14:41:18;;;;;;;;;;;21.50;21.10;;;;;;5142566;27;19949;-59
2022/04/20 14:43:44;;;;;;;;;;;21.50;21.10;;;;;;5148221;27;19967;-60
2022/04/20 14:46:11;;;;;;;;;;;21.50;21.10;;;;;;5138046;27;19979;-58
2022/04/20 14:48:37;;;;;;;;;;;21.50;21.20;;;;;;5141031;27;20102;-61
2022/04/20 14:51:04;;;;;;;;;;;21.50;21.20;;;;;;5148037;27;19923;-61
2022/04/20 14:53:30;;;;;;;;;;;21.50;21.20;;;;;;5142721;27;19927;-59
2022/04/20 14:55:56;;;;;;;;;;;21.60;21.20;;;;;;5145808;27;20027;-59
2022/04/20 14:58:22;;;;;;;;;;;21.50;21.30;;;;;;5145164;27;19931;-59
2022/04/20 15:00:48;;;;;;;;;;;21.60;21.30;;;;;;5142493;27;19930;-61
2022/04/20 15:03:13;;;;;;;;;;;21.70;21.30;;;;;;5146305;27;19934;-58